sensor_id;sensor_type;location;lat;lon;timestamp;pressure;altitude;pressure_sealevel;temperature;humidity
67038;BME280;53940;53.204;6.590;2022-10-16T00:00:18;100704.13;;;21.59;51.21
67038;BME280;53940;53.204;6.590;2022-10-16T00:03:18;100708.50;;;21.60;51.49
67038;BME280;53940;53.204;6.590;2022-10-16T00:06:21;100703.31;;;21.58;51.05
67038;BME280;53940;53.204;6.590;2022-10-16T00:09:21;100706.97;;;21.57;51.40
67038;BME280;53940;53.204;6.590;2022-10-16T00:12:22;100706.97;;;21.57;51.25
67038;BME280;53940;53.204;6.590;2022-10-16T00:15:22;100698.22;;;21.55;51.10
67038;BME280;53940;53.204;6.590;2022-10-16T00:18:24;100698.22;;;21.55;51.26
67038;BME280;53940;53.204;6.590;2022-10-16T00:21:26;100704.75;;;21.52;51.11
67038;BME280;53940;53.204;6.590;2022-10-16T00:24:27;100704.88;;;21.51;51.48
67038;BME280;53940;53.204;6.590;2022-10-16T00:27:28;100699.50;;;21.51;51.42
67038;BME280;53940;53.204;6.590;2022-10-16T00:30:29;100696.84;;;21.51;51.02
67038;BME280;53940;53.204;6.590;2022-10-16T00:33:29;100700.50;;;21.50;51.13
67038;BME280;53940;53.204;6.590;2022-10-16T00:36:29;100703.19;;;21.50;51.21
67038;BME280;53940;53.204;6.590;2022-10-16T00:39:30;100704.19;;;21.49;51.29
67038;BME280;53940;53.204;6.590;2022-10-16T00:42:31;100697.16;;;21.48;51.21
67038;BME280;53940;53.204;6.590;2022-10-16T00:45:31;100692.78;;;21.47;51.09
67038;BME280;53940;53.204;6.590;2022-10-16T00:48:31;100693.78;;;21.46;51.18
67038;BME280;53940;53.204;6.590;2022-10-16T00:51:36;100691.09;;;21.46;51.35
67038;BME280;53940;53.204;6.590;2022-10-16T00:54:37;100693.78;;;21.46;50.96
67038;BME280;53940;53.204;6.590;2022-10-16T00:57:38;100691.09;;;21.46;51.06
67038;BME280;53940;53.204;6.590;2022-10-16T01:00:39;100701.09;;;21.44;50.92
67038;BME280;53940;53.204;6.590;2022-10-16T01:03:39;100687.00;;;21.41;50.99
67038;BME280;53940;53.204;6.590;2022-10-16T01:10:21;100674.44;;;21.42;51.07
67038;BME280;53940;53.204;6.590;2022-10-16T01:13:33;100677.28;;;21.40;50.81
67038;BME280;53940;53.204;6.590;2022-10-16T01:16:55;100678.28;;;21.39;51.29
67038;BME280;53940;53.204;6.590;2022-10-16T01:20:07;100685.47;;;21.39;50.80
67038;BME280;53940;53.204;6.590;2022-10-16T01:26:37;100688.28;;;21.37;50.96
67038;BME280;53940;53.204;6.590;2022-10-16T01:29:55;100685.63;;;21.37;50.73
67038;BME280;53940;53.204;6.590;2022-10-16T01:33:02;100689.28;;;21.36;50.95
67038;BME280;53940;53.204;6.590;2022-10-16T01:36:10;100686.75;;;21.35;51.08
67038;BME280;53940;53.204;6.590;2022-10-16T01:39:12;100692.97;;;21.35;51.14
67038;BME280;53940;53.204;6.590;2022-10-16T01:42:18;100686.75;;;21.35;50.74
67038;BME280;53940;53.204;6.590;2022-10-16T01:45:21;100692.09;;;21.35;50.74
67038;BME280;53940;53.204;6.590;2022-10-16T01:48:23;100699.31;;;21.34;51.11
67038;BME280;53940;53.204;6.590;2022-10-16T01:51:24;100707.38;;;21.34;50.90
67038;BME280;53940;53.204;6.590;2022-10-16T01:54:27;100693.25;;;21.32;51.01
67038;BME280;53940;53.204;6.590;2022-10-16T01:57:29;100693.25;;;21.32;50.82
67038;BME280;53940;53.204;6.590;2022-10-16T02:00:30;100691.56;;;21.31;50.82
67038;BME280;53940;53.204;6.590;2022-10-16T02:03:32;100691.56;;;21.31;51.01
67038;BME280;53940;53.204;6.590;2022-10-16T02:06:34;100697.78;;;21.32;50.92
67038;BME280;53940;53.204;6.590;2022-10-16T02:09:36;100692.56;;;21.30;50.77
67038;BME280;53940;53.204;6.590;2022-10-16T02:12:38;100696.09;;;21.31;50.84
67038;BME280;53940;53.204;6.590;2022-10-16T02:15:40;100693.56;;;21.29;50.94
67038;BME280;53940;53.204;6.590;2022-10-16T02:18:42;100698.91;;;21.29;50.73
67038;BME280;53940;53.204;6.590;2022-10-16T02:25:06;100702.59;;;21.28;50.68
67038;BME280;53940;53.204;6.590;2022-10-16T02:28:15;100696.38;;;21.27;50.45
67038;BME280;53940;53.204;6.590;2022-10-16T02:31:23;100702.72;;;21.26;50.54
67038;BME280;53940;53.204;6.590;2022-10-16T02:34:25;100698.22;;;21.27;50.86
67038;BME280;53940;53.204;6.590;2022-10-16T02:37:28;100688.47;;;21.26;50.51
67038;BME280;53940;53.204;6.590;2022-10-16T02:40:28;100692.16;;;21.25;50.47
67038;BME280;53940;53.204;6.590;2022-10-16T02:43:29;100693.84;;;21.26;50.72
67038;BME280;53940;53.204;6.590;2022-10-16T02:46:29;100692.16;;;21.25;50.45
67038;BME280;53940;53.204;6.590;2022-10-16T02:49:30;100713.59;;;21.25;50.77
67038;BME280;53940;53.204;6.590;2022-10-16T02:52:30;100701.19;;;21.24;50.56
67038;BME280;53940;53.204;6.590;2022-10-16T02:55:30;100711.06;;;21.23;50.53
67038;BME280;53940;53.204;6.590;2022-10-16T02:58:31;100713.72;;;21.23;50.53
67038;BME280;53940;53.204;6.590;2022-10-16T03:01:31;100718.25;;;21.23;50.78
67038;BME280;53940;53.204;6.590;2022-10-16T03:04:31;100721.78;;;21.23;50.57
67038;BME280;53940;53.204;6.590;2022-10-16T03:07:32;100713.91;;;21.22;50.71
67038;BME280;53940;53.204;6.590;2022-10-16T03:10:32;100717.41;;;21.22;50.42
67038;BME280;53940;53.204;6.590;2022-10-16T03:13:33;100717.53;;;21.21;50.61
67038;BME280;53940;53.204;6.590;2022-10-16T03:16:33;100726.59;;;21.20;50.31
67038;BME280;53940;53.204;6.590;2022-10-16T03:19:33;100723.91;;;21.20;50.33
67038;BME280;53940;53.204;6.590;2022-10-16T03:22:34;100721.22;;;21.20;50.56
67038;BME280;53940;53.204;6.590;2022-10-16T03:25:35;100714.19;;;21.19;50.65
67038;BME280;53940;53.204;6.590;2022-10-16T03:28:35;100716.84;;;21.19;50.53
67038;BME280;53940;53.204;6.590;2022-10-16T03:31:35;100717.84;;;21.18;50.46
67038;BME280;53940;53.204;6.590;2022-10-16T03:34:36;100729.44;;;21.18;50.36
67038;BME280;53940;53.204;6.590;2022-10-16T03:37:36;100729.44;;;21.18;50.36
67038;BME280;53940;53.204;6.590;2022-10-16T03:40:36;100723.22;;;21.18;50.85
67038;BME280;53940;53.204;6.590;2022-10-16T03:43:37;100725.22;;;21.16;50.45
67038;BME280;53940;53.204;6.590;2022-10-16T03:46:37;100734.94;;;21.17;50.50
67038;BME280;53940;53.204;6.590;2022-10-16T03:49:38;100733.25;;;21.16;50.57
67038;BME280;53940;53.204;6.590;2022-10-16T03:52:38;100730.56;;;21.16;50.21
67038;BME280;53940;53.204;6.590;2022-10-16T03:55:41;100739.56;;;21.14;50.40
67038;BME280;53940;53.204;6.590;2022-10-16T03:58:42;100735.19;;;21.13;50.38
67038;BME280;53940;53.204;6.590;2022-10-16T04:01:42;100734.22;;;21.14;50.11
67038;BME280;53940;53.204;6.590;2022-10-16T04:04:42;100735.19;;;21.13;50.12
67038;BME280;53940;53.204;6.590;2022-10-16T04:07:43;100738.75;;;21.14;50.12
67038;BME280;53940;53.204;6.590;2022-10-16T04:10:43;100740.56;;;21.13;50.17
67038;BME280;53940;53.204;6.590;2022-10-16T04:13:44;100738.88;;;21.12;50.24
67038;BME280;53940;53.204;6.590;2022-10-16T04:16:44;100748.78;;;21.12;50.35
67038;BME280;53940;53.204;6.590;2022-10-16T04:19:44;100750.59;;;21.11;50.14
67038;BME280;53940;53.204;6.590;2022-10-16T04:22:45;100756.81;;;21.12;50.17
67038;BME280;53940;53.204;6.590;2022-10-16T04:25:45;100761.31;;;21.11;49.99
67038;BME280;53940;53.204;6.590;2022-10-16T04:28:45;100759.63;;;21.10;50.18
67038;BME280;53940;53.204;6.590;2022-10-16T04:31:46;100765.97;;;21.09;49.92
67038;BME280;53940;53.204;6.590;2022-10-16T04:34:46;100778.38;;;21.10;49.97
67038;BME280;53940;53.204;6.590;2022-10-16T04:37:47;100785.56;;;21.10;50.27
67038;BME280;53940;53.204;6.590;2022-10-16T04:40:47;100790.91;;;21.10;50.21
67038;BME280;53940;53.204;6.590;2022-10-16T04:43:47;100784.72;;;21.09;50.17
67038;BME280;53940;53.204;6.590;2022-10-16T04:46:50;100790.09;;;21.09;49.98
67038;BME280;53940;53.204;6.590;2022-10-16T04:49:50;100799.94;;;21.09;49.95
67038;BME280;53940;53.204;6.590;2022-10-16T04:52:51;100806.16;;;21.09;49.85
67038;BME280;53940;53.204;6.590;2022-10-16T04:55:51;100809.81;;;21.08;49.95
67038;BME280;53940;53.204;6.590;2022-10-16T04:58:52;100822.25;;;21.09;50.14
67038;BME280;53940;53.204;6.590;2022-10-16T05:01:52;100819.84;;;21.06;50.17
67038;BME280;53940;53.204;6.590;2022-10-16T05:04:53;100818.84;;;21.07;49.89
67038;BME280;53940;53.204;6.590;2022-10-16T05:07:53;100808.13;;;21.07;50.06
67038;BME280;53940;53.204;6.590;2022-10-16T05:10:54;100814.34;;;21.08;50.10
67038;BME280;53940;53.204;6.590;2022-10-16T05:13:54;100811.81;;;21.06;49.96
67038;BME280;53940;53.204;6.590;2022-10-16T05:16:54;100821.53;;;21.07;49.81
67038;BME280;53940;53.204;6.590;2022-10-16T05:19:55;100821.69;;;21.06;50.25
67038;BME280;53940;53.204;6.590;2022-10-16T05:22:55;100826.19;;;21.05;50.19
67038;BME280;53940;53.204;6.590;2022-10-16T05:25:56;100823.50;;;21.05;49.95
67038;BME280;53940;53.204;6.590;2022-10-16T05:28:58;100820.84;;;21.05;50.15
67038;BME280;53940;53.204;6.590;2022-10-16T05:31:58;100832.53;;;21.04;50.18
67038;BME280;53940;53.204;6.590;2022-10-16T05:34:58;100829.88;;;21.04;50.22
67038;BME280;53940;53.204;6.590;2022-10-16T05:38:00;100835.22;;;21.04;50.01
67038;BME280;53940;53.204;6.590;2022-10-16T05:41:00;100833.53;;;21.03;49.88
67038;BME280;53940;53.204;6.590;2022-10-16T05:44:04;100829.13;;;21.02;50.05
67038;BME280;53940;53.204;6.590;2022-10-16T05:47:04;100826.47;;;21.02;49.83
67038;BME280;53940;53.204;6.590;2022-10-16T05:50:04;100826.47;;;21.02;50.03
67038;BME280;53940;53.204;6.590;2022-10-16T05:53:05;100831.81;;;21.02;49.85
67038;BME280;53940;53.204;6.590;2022-10-16T05:56:07;100842.53;;;21.02;50.05
67038;BME280;53940;53.204;6.590;2022-10-16T05:59:09;100837.19;;;21.02;50.22
67038;BME280;53940;53.204;6.590;2022-10-16T06:02:13;100847.06;;;21.02;50.03
67038;BME280;53940;53.204;6.590;2022-10-16T06:05:13;100862.28;;;21.01;50.21
67038;BME280;53940;53.204;6.590;2022-10-16T06:08:14;100861.44;;;21.00;49.98
67038;BME280;53940;53.204;6.590;2022-10-16T06:11:17;100862.28;;;21.01;50.17
67038;BME280;53940;53.204;6.590;2022-10-16T06:14:18;100882.03;;;21.00;50.20
67038;BME280;53940;53.204;6.590;2022-10-16T06:17:18;100872.19;;;21.00;49.85
67038;BME280;53940;53.204;6.590;2022-10-16T06:20:18;100876.66;;;21.00;49.96
67038;BME280;53940;53.204;6.590;2022-10-16T06:23:19;100876.66;;;21.00;49.93
67038;BME280;53940;53.204;6.590;2022-10-16T06:26:21;100874.84;;;21.00;50.22
67038;BME280;53940;53.204;6.590;2022-10-16T06:29:22;100874.00;;;21.00;50.19
67038;BME280;53940;53.204;6.590;2022-10-16T06:32:22;100871.31;;;21.00;49.83
67038;BME280;53940;53.204;6.590;2022-10-16T06:35:23;100867.66;;;21.01;49.76
67038;BME280;53940;53.204;6.590;2022-10-16T06:38:23;100880.34;;;20.99;49.81
67038;BME280;53940;53.204;6.590;2022-10-16T06:41:24;100885.69;;;20.99;49.90
67038;BME280;53940;53.204;6.590;2022-10-16T06:44:24;100877.66;;;20.99;50.06
67038;BME280;53940;53.204;6.590;2022-10-16T06:47:25;100886.56;;;20.99;49.91
67038;BME280;53940;53.204;6.590;2022-10-16T06:50:25;100893.75;;;20.99;50.02
67038;BME280;53940;53.204;6.590;2022-10-16T06:53:27;100897.28;;;20.99;49.99
67038;BME280;53940;53.204;6.590;2022-10-16T06:56:29;100906.16;;;21.00;50.27
67038;BME280;53940;53.204;6.590;2022-10-16T06:59:30;100905.16;;;21.01;49.94
67038;BME280;53940;53.204;6.590;2022-10-16T07:02:31;100908.69;;;21.02;50.27
67038;BME280;53940;53.204;6.590;2022-10-16T07:05:31;100924.63;;;21.03;50.03
67038;BME280;53940;53.204;6.590;2022-10-16T07:08:33;100919.28;;;21.03;50.08
67038;BME280;53940;53.204;6.590;2022-10-16T07:11:34;100934.34;;;21.04;50.27
67038;BME280;53940;53.204;6.590;2022-10-16T07:14:34;100943.22;;;21.05;50.11
67038;BME280;53940;53.204;6.590;2022-10-16T07:17:35;100942.41;;;21.04;50.04
67038;BME280;53940;53.204;6.590;2022-10-16T07:20:35;100953.13;;;21.04;50.15
67038;BME280;53940;53.204;6.590;2022-10-16T07:23:36;100959.31;;;21.05;50.17
67038;BME280;53940;53.204;6.590;2022-10-16T07:26:37;100970.88;;;21.05;49.95
67038;BME280;53940;53.204;6.590;2022-10-16T07:29:39;100984.28;;;21.05;50.31
67038;BME280;53940;53.204;6.590;2022-10-16T07:32:39;100989.63;;;21.05;50.24
67038;BME280;53940;53.204;6.590;2022-10-16T07:35:54;100992.31;;;21.05;50.27
67038;BME280;53940;53.204;6.590;2022-10-16T07:38:54;100999.38;;;21.06;50.28
67038;BME280;53940;53.204;6.590;2022-10-16T07:41:55;101002.75;;;21.08;50.14
67038;BME280;53940;53.204;6.590;2022-10-16T07:44:56;100998.25;;;21.09;50.46
67038;BME280;53940;53.204;6.590;2022-10-16T07:47:56;101009.81;;;21.09;50.22
67038;BME280;53940;53.204;6.590;2022-10-16T07:51:03;101013.19;;;21.11;50.21
67038;BME280;53940;53.204;6.590;2022-10-16T07:54:04;101017.56;;;21.12;50.12
67038;BME280;53940;53.204;6.590;2022-10-16T07:57:04;101019.13;;;21.15;50.47
67038;BME280;53940;53.204;6.590;2022-10-16T08:00:05;101021.69;;;21.17;50.47
67038;BME280;53940;53.204;6.590;2022-10-16T08:03:06;101015.19;;;21.19;50.17
67038;BME280;53940;53.204;6.590;2022-10-16T08:06:06;101025.63;;;21.22;50.61
67038;BME280;53940;53.204;6.590;2022-10-16T08:09:07;101016.59;;;21.23;50.63
67038;BME280;53940;53.204;6.590;2022-10-16T08:12:08;101027.06;;;21.26;50.40
67038;BME280;53940;53.204;6.590;2022-10-16T08:15:10;101026.91;;;21.28;50.70
67038;BME280;53940;53.204;6.590;2022-10-16T08:18:12;101032.97;;;21.30;50.35
67038;BME280;53940;53.204;6.590;2022-10-16T08:21:17;101038.06;;;21.33;50.64
67038;BME280;53940;53.204;6.590;2022-10-16T08:24:17;101043.16;;;21.36;50.71
67038;BME280;53940;53.204;6.590;2022-10-16T08:27:18;101054.44;;;21.40;50.65
67038;BME280;53940;53.204;6.590;2022-10-16T08:30:20;101067.72;;;21.41;50.54
67038;BME280;53940;53.204;6.590;2022-10-16T08:33:20;101064.72;;;21.45;50.45
67038;BME280;53940;53.204;6.590;2022-10-16T08:36:21;101062.78;;;21.47;50.71
67038;BME280;53940;53.204;6.590;2022-10-16T08:39:21;101065.16;;;21.50;50.65
67038;BME280;53940;53.204;6.590;2022-10-16T08:42:50;101064.91;;;21.53;50.79
67038;BME280;53940;53.204;6.590;2022-10-16T08:48:58;101070.41;;;21.61;50.72
67038;BME280;53940;53.204;6.590;2022-10-16T08:51:59;101083.53;;;21.64;50.53
67038;BME280;53940;53.204;6.590;2022-10-16T08:55:01;101097.66;;;21.66;50.76
67038;BME280;53940;53.204;6.590;2022-10-16T08:58:02;101096.53;;;21.69;50.57
67038;BME280;53940;53.204;6.590;2022-10-16T09:01:04;101099.94;;;21.71;50.59
67038;BME280;53940;53.204;6.590;2022-10-16T09:04:44;101105.03;;;21.74;50.71
67038;BME280;53940;53.204;6.590;2022-10-16T09:10:59;101123.09;;;21.82;50.54
67038;BME280;53940;53.204;6.590;2022-10-16T09:17:37;101133.25;;;21.88;50.66
67038;BME280;53940;53.204;6.590;2022-10-16T09:23:47;101140.75;;;21.94;50.33
67038;BME280;53940;53.204;6.590;2022-10-16T09:26:48;101148.53;;;21.98;50.38
67038;BME280;53940;53.204;6.590;2022-10-16T09:29:48;101148.25;;;22.01;50.51
67038;BME280;53940;53.204;6.590;2022-10-16T09:32:51;101158.69;;;22.04;50.28
67038;BME280;53940;53.204;6.590;2022-10-16T09:35:54;101168.31;;;22.06;50.40
67038;BME280;53940;53.204;6.590;2022-10-16T09:39:07;101172.56;;;22.09;50.44
67038;BME280;53940;53.204;6.590;2022-10-16T09:42:11;101167.88;;;22.11;50.43
67038;BME280;53940;53.204;6.590;2022-10-16T09:45:22;101167.75;;;22.13;50.24
67038;BME280;53940;53.204;6.590;2022-10-16T09:48:26;101179.03;;;22.16;50.39
67038;BME280;53940;53.204;6.590;2022-10-16T09:51:30;101181.44;;;22.19;50.52
67038;BME280;53940;53.204;6.590;2022-10-16T09:54:31;101179.59;;;22.20;50.23
67038;BME280;53940;53.204;6.590;2022-10-16T09:57:31;101183.84;;;22.23;50.14
67038;BME280;53940;53.204;6.590;2022-10-16T10:00:32;101177.34;;;22.25;50.11
67038;BME280;53940;53.204;6.590;2022-10-16T10:03:35;101188.78;;;22.27;50.28
67038;BME280;53940;53.204;6.590;2022-10-16T10:06:42;101186.81;;;22.29;50.22
67038;BME280;53940;53.204;6.590;2022-10-16T10:09:44;101190.06;;;22.33;50.07
67038;BME280;53940;53.204;6.590;2022-10-16T10:12:45;101189.91;;;22.34;50.27
67038;BME280;53940;53.204;6.590;2022-10-16T10:15:46;101198.53;;;22.38;50.19
67038;BME280;53940;53.204;6.590;2022-10-16T10:18:46;101196.56;;;22.40;50.32
67038;BME280;53940;53.204;6.590;2022-10-16T10:21:47;101202.34;;;22.45;50.20
67038;BME280;53940;53.204;6.590;2022-10-16T10:35:01;101222.59;;;22.69;49.78
67038;BME280;53940;53.204;6.590;2022-10-16T10:38:20;101227.38;;;22.75;49.51
67038;BME280;53940;53.204;6.590;2022-10-16T10:44:57;101247.41;;;22.91;49.46
67038;BME280;53940;53.204;6.590;2022-10-16T10:51:44;101256.88;;;23.05;49.41
67038;BME280;53940;53.204;6.590;2022-10-16T11:01:56;101261.31;;;23.24;48.98
67038;BME280;53940;53.204;6.590;2022-10-16T11:08:13;101272.66;;;23.38;48.75
67038;BME280;53940;53.204;6.590;2022-10-16T11:11:19;101290.88;;;23.44;48.76
67038;BME280;53940;53.204;6.590;2022-10-16T11:14:28;101277.00;;;23.49;48.55
67038;BME280;53940;53.204;6.590;2022-10-16T11:20:57;101288.00;;;23.55;48.02
67038;BME280;53940;53.204;6.590;2022-10-16T11:24:06;101282.31;;;23.59;48.27
67038;BME280;53940;53.204;6.590;2022-10-16T11:27:16;101278.63;;;23.60;47.91
67038;BME280;53940;53.204;6.590;2022-10-16T11:30:22;101272.97;;;23.63;48.10
67038;BME280;53940;53.204;6.590;2022-10-16T11:33:34;101281.72;;;23.65;48.05
67038;BME280;53940;53.204;6.590;2022-10-16T11:36:53;101287.81;;;23.67;48.21
67038;BME280;53940;53.204;6.590;2022-10-16T11:40:05;101292.19;;;23.68;48.03
67038;BME280;53940;53.204;6.590;2022-10-16T11:43:26;101294.72;;;23.69;48.07
67038;BME280;53940;53.204;6.590;2022-10-16T11:46:30;101305.34;;;23.71;48.22
67038;BME280;53940;53.204;6.590;2022-10-16T11:49:33;101308.91;;;23.72;48.27
67038;BME280;53940;53.204;6.590;2022-10-16T11:52:42;101308.03;;;23.71;48.11
67038;BME280;53940;53.204;6.590;2022-10-16T11:55:45;101316.13;;;23.71;48.32
67038;BME280;53940;53.204;6.590;2022-10-16T12:02:20;101317.13;;;23.70;48.00
67038;BME280;53940;53.204;6.590;2022-10-16T12:08:52;101323.50;;;23.69;48.28
67038;BME280;53940;53.204;6.590;2022-10-16T12:11:54;101334.25;;;23.69;48.35
67038;BME280;53940;53.204;6.590;2022-10-16T12:15:15;101349.69;;;23.67;48.17
67038;BME280;53940;53.204;6.590;2022-10-16T12:18:22;101361.44;;;23.66;48.10
67038;BME280;53940;53.204;6.590;2022-10-16T12:21:30;101367.13;;;23.63;48.01
67038;BME280;53940;53.204;6.590;2022-10-16T12:24:35;101380.59;;;23.63;48.29
67038;BME280;53940;53.204;6.590;2022-10-16T12:27:36;101380.88;;;23.60;48.28
67038;BME280;53940;53.204;6.590;2022-10-16T12:30:37;101385.69;;;23.56;48.29
67038;BME280;53940;53.204;6.590;2022-10-16T12:33:42;101388.53;;;23.54;
67038;BME280;53940;53.204;6.590;2022-10-16T12:36:51;101383.44;;;23.51;48.24
67038;BME280;53940;53.204;6.590;2022-10-16T12:39:53;101387.41;;;23.47;48.37
67038;BME280;53940;53.204;6.590;2022-10-16T12:42:54;101385.72;;;23.46;48.37
67038;BME280;53940;53.204;6.590;2022-10-16T12:52:36;101389.25;;;23.37;48.32
67038;BME280;53940;53.204;6.590;2022-10-16T12:56:08;101420.00;;;23.34;48.22
67038;BME280;53940;53.204;6.590;2022-10-16T12:59:31;101409.38;;;23.33;48.29
67038;BME280;53940;53.204;6.590;2022-10-16T13:09:25;101414.59;;;23.24;48.33
67038;BME280;53940;53.204;6.590;2022-10-16T13:25:43;101440.09;;;23.10;48.42
67038;BME280;53940;53.204;6.590;2022-10-16T13:28:47;101447.28;;;23.10;48.51
67038;BME280;53940;53.204;6.590;2022-10-16T13:31:48;101457.34;;;23.08;48.53
67038;BME280;53940;53.204;6.590;2022-10-16T13:34:48;101456.63;;;23.06;48.42
67038;BME280;53940;53.204;6.590;2022-10-16T13:37:49;101458.59;;;23.04;48.53
67038;BME280;53940;53.204;6.590;2022-10-16T13:43:53;101463.53;;;22.98;48.66
67038;BME280;53940;53.204;6.590;2022-10-16T13:47:00;101469.91;;;22.97;48.59
67038;BME280;53940;53.204;6.590;2022-10-16T13:50:05;101473.72;;;22.95;48.55
67038;BME280;53940;53.204;6.590;2022-10-16T13:53:07;101484.63;;;22.93;48.67
67038;BME280;53940;53.204;6.590;2022-10-16T13:56:17;101478.53;;;22.91;48.70
67038;BME280;53940;53.204;6.590;2022-10-16T13:59:27;101475.41;;;22.86;48.69
67038;BME280;53940;53.204;6.590;2022-10-16T14:02:37;101477.41;;;22.84;48.60
67038;BME280;53940;53.204;6.590;2022-10-16T14:05:49;101484.75;;;22.82;48.64
67038;BME280;53940;53.204;6.590;2022-10-16T14:08:57;101492.09;;;22.80;48.62
67038;BME280;53940;53.204;6.590;2022-10-16T14:12:02;101489.53;;;22.78;48.68
67038;BME280;53940;53.204;6.590;2022-10-16T14:15:03;101481.63;;;22.77;48.87
67038;BME280;53940;53.204;6.590;2022-10-16T14:18:04;101487.13;;;22.75;48.69
67038;BME280;53940;53.204;6.590;2022-10-16T14:21:06;101489.13;;;22.73;48.66
67038;BME280;53940;53.204;6.590;2022-10-16T14:24:11;101491.94;;;22.71;48.72
67038;BME280;53940;53.204;6.590;2022-10-16T14:27:41;101497.56;;;22.68;48.62
67038;BME280;53940;53.204;6.590;2022-10-16T14:34:39;101507.75;;;22.65;48.65
67038;BME280;53940;53.204;6.590;2022-10-16T14:37:40;101514.97;;;22.64;48.78
67038;BME280;53940;53.204;6.590;2022-10-16T14:40:47;101525.97;;;22.61;48.56
67038;BME280;53940;53.204;6.590;2022-10-16T14:43:52;101527.97;;;22.59;48.72
67038;BME280;53940;53.204;6.590;2022-10-16T14:46:53;101529.91;;;22.57;48.76
67038;BME280;53940;53.204;6.590;2022-10-16T14:49:54;101535.56;;;22.54;48.80
67038;BME280;53940;53.204;6.590;2022-10-16T14:52:56;101538.38;;;22.52;48.85
67038;BME280;53940;53.204;6.590;2022-10-16T14:55:56;101553.75;;;22.50;48.72
67038;BME280;53940;53.204;6.590;2022-10-16T14:58:57;101551.19;;;22.48;48.90
67038;BME280;53940;53.204;6.590;2022-10-16T15:01:57;101539.75;;;22.46;48.91
67038;BME280;53940;53.204;6.590;2022-10-16T15:04:58;101547.06;;;22.44;48.93
67038;BME280;53940;53.204;6.590;2022-10-16T15:08:02;101536.34;;;22.44;48.96
67038;BME280;53940;53.204;6.590;2022-10-16T15:11:04;101532.94;;;22.42;49.12
67038;BME280;53940;53.204;6.590;2022-10-16T15:14:05;101528.69;;;22.40;49.27
67038;BME280;53940;53.204;6.590;2022-10-16T15:17:09;101535.91;;;22.39;48.92
67038;BME280;53940;53.204;6.590;2022-10-16T15:20:10;101536.88;;;22.38;49.25
67038;BME280;53940;53.204;6.590;2022-10-16T15:23:15;101542.25;;;22.38;49.10
67038;BME280;53940;53.204;6.590;2022-10-16T15:26:16;101540.53;;;22.37;49.12
67038;BME280;53940;53.204;6.590;2022-10-16T15:29:17;101547.91;;;22.35;49.10
67038;BME280;53940;53.204;6.590;2022-10-16T15:32:17;101544.34;;;22.34;49.24
67038;BME280;53940;53.204;6.590;2022-10-16T15:35:17;101534.59;;;22.33;49.27
67038;BME280;53940;53.204;6.590;2022-10-16T15:38:20;101551.56;;;22.34;49.24
67038;BME280;53940;53.204;6.590;2022-10-16T15:41:21;101552.69;;;22.31;49.33
67038;BME280;53940;53.204;6.590;2022-10-16T15:44:21;101562.56;;;22.31;49.30
67038;BME280;53940;53.204;6.590;2022-10-16T15:47:29;101554.66;;;22.29;49.33
67038;BME280;53940;53.204;6.590;2022-10-16T15:50:30;101561.84;;;22.29;49.31
67038;BME280;53940;53.204;6.590;2022-10-16T15:53:31;101556.59;;;22.27;49.56
67038;BME280;53940;53.204;6.590;2022-10-16T15:56:32;101567.34;;;22.27;49.60
67038;BME280;53940;53.204;6.590;2022-10-16T15:59:33;101568.47;;;22.25;49.64
67038;BME280;53940;53.204;6.590;2022-10-16T16:02:33;101572.13;;;22.24;49.56
67038;BME280;53940;53.204;6.590;2022-10-16T16:05:37;101566.75;;;22.24;49.58
67038;BME280;53940;53.204;6.590;2022-10-16T16:08:39;101573.97;;;22.23;49.53
67038;BME280;53940;53.204;6.590;2022-10-16T16:11:39;101579.47;;;22.21;49.45
67038;BME280;53940;53.204;6.590;2022-10-16T16:14:40;101576.91;;;22.20;49.39
67038;BME280;53940;53.204;6.590;2022-10-16T16:17:40;101580.47;;;22.20;49.61
67038;BME280;53940;53.204;6.590;2022-10-16T16:20:44;101592.16;;;22.19;49.61
67038;BME280;53940;53.204;6.590;2022-10-16T16:23:44;101585.97;;;22.19;49.60
67038;BME280;53940;53.204;6.590;2022-10-16T16:26:44;101591.44;;;22.17;49.74
67038;BME280;53940;53.204;6.590;2022-10-16T16:29:45;101599.50;;;22.17;49.47
67038;BME280;53940;53.204;6.590;2022-10-16T16:32:46;101599.50;;;22.17;49.55
67038;BME280;53940;53.204;6.590;2022-10-16T16:35:46;101602.31;;;22.16;49.59
67038;BME280;53940;53.204;6.590;2022-10-16T16:38:46;101609.53;;;22.15;49.59
67038;BME280;53940;53.204;6.590;2022-10-16T16:41:47;101610.53;;;22.14;49.41
67038;BME280;53940;53.204;6.590;2022-10-16T16:44:47;101610.53;;;22.14;49.27
67038;BME280;53940;53.204;6.590;2022-10-16T16:47:48;101617.72;;;22.14;49.33
67038;BME280;53940;53.204;6.590;2022-10-16T16:50:48;101620.53;;;22.12;49.37
67038;BME280;53940;53.204;6.590;2022-10-16T16:53:51;101622.38;;;22.12;49.38
67038;BME280;53940;53.204;6.590;2022-10-16T16:56:52;101626.03;;;22.11;49.44
67038;BME280;53940;53.204;6.590;2022-10-16T16:59:52;101635.91;;;22.10;49.28
67038;BME280;53940;53.204;6.590;2022-10-16T17:02:53;101633.34;;;22.08;49.56
67038;BME280;53940;53.204;6.590;2022-10-16T17:05:58;101637.88;;;22.08;49.48
67038;BME280;53940;53.204;6.590;2022-10-16T17:09:00;101644.22;;;22.07;49.61
67038;BME280;53940;53.204;6.590;2022-10-16T17:12:02;101655.94;;;22.06;49.61
67038;BME280;53940;53.204;6.590;2022-10-16T17:15:03;101659.59;;;22.05;49.40
67038;BME280;53940;53.204;6.590;2022-10-16T17:18:04;101653.41;;;22.04;49.56
67038;BME280;53940;53.204;6.590;2022-10-16T17:21:06;101652.53;;;22.04;49.45
67038;BME280;53940;53.204;6.590;2022-10-16T17:24:07;101657.91;;;22.04;49.63
67038;BME280;53940;53.204;6.590;2022-10-16T17:27:08;101671.31;;;22.04;49.64
67038;BME280;53940;53.204;6.590;2022-10-16T17:30:09;101666.94;;;22.03;49.31